Time;durP1;ratioP1;P1;durP2;ratioP2;P2;SDS_P1;SDS_P2;PMS_P1;PMS_P2;Temp;Humidity;BMP_temperature;BMP_pressure;BME280_temperature;BME280_humidity;BME280_pressure;Samples;Min_cycle;Max_cycle;Signal;HPM_P1;HPM_P2
2024/01/11 00:01:30;;;;;;;25.13;15.03;;;-3.40;75.90;;;;;;6289721;28;20201;-65
2024/01/11 00:04:30;;;;;;;25.67;14.87;;;-3.40;76.30;;;;;;6280027;28;20192;-65
2024/01/11 00:07:31;;;;;;;25.57;13.83;;;-3.40;75.90;;;;;;6265852;28;20190;-64
2024/01/11 00:10:31;;;;;;;24.10;14.40;;;-3.40;76.20;;;;;;6264680;28;20208;-65
2024/01/11 00:13:32;;;;;;;21.97;14.07;;;-3.50;75.60;;;;;;6261063;28;20190;-65
2024/01/11 00:16:33;;;;;;;23.10;13.93;;;-3.50;75.80;;;;;;6282088;28;20183;-64
2024/01/11 00:19:34;;;;;;;24.90;14.47;;;-3.60;76.40;;;;;;6289247;28;20638;-65
2024/01/11 00:22:34;;;;;;;22.50;13.37;;;-3.60;76.50;;;;;;6260104;28;20179;-64
2024/01/11 00:25:35;;;;;;;23.80;13.97;;;-3.60;76.80;;;;;;6264939;28;20190;-65
2024/01/11 00:28:36;;;;;;;20.10;12.53;;;-3.60;76.70;;;;;;6259477;28;20234;-65
2024/01/11 00:31:38;;;;;;;20.27;13.60;;;-3.60;76.50;;;;;;6269965;28;20305;-65
2024/01/11 00:34:38;;;;;;;19.97;13.87;;;-3.60;76.50;;;;;;6289746;28;20179;-65
2024/01/11 00:37:39;;;;;;;24.73;14.00;;;-3.60;76.00;;;;;;6271632;28;20249;-65
2024/01/11 00:40:40;;;;;;;20.60;12.73;;;-3.60;76.50;;;;;;6272970;28;20182;-64
2024/01/11 00:43:41;;;;;;;20.30;12.20;;;-3.60;76.70;;;;;;6279326;28;20237;-64
2024/01/11 00:46:42;;;;;;;19.83;12.30;;;-3.60;76.70;;;;;;6282732;28;20193;-65
2024/01/11 00:49:42;;;;;;;21.47;12.37;;;-3.60;76.50;;;;;;6280691;28;20191;-65
2024/01/11 00:52:43;;;;;;;24.30;13.50;;;-3.60;76.40;;;;;;6278668;28;20182;-64
2024/01/11 00:55:44;;;;;;;18.53;12.27;;;-3.60;76.70;;;;;;6292077;28;20185;-65
2024/01/11 00:58:45;;;;;;;23.67;12.47;;;-3.60;76.50;;;;;;6278562;28;20230;-64
2024/01/11 01:01:50;;;;;;;23.80;12.40;;;-3.60;76.80;;;;;;6269526;28;20193;-64
2024/01/11 01:04:50;;;;;;;21.07;11.93;;;-3.60;77.20;;;;;;6283990;28;20255;-65
2024/01/11 01:07:51;;;;;;;21.13;11.90;;;-3.70;76.60;;;;;;6253557;28;20198;-64
2024/01/11 01:10:52;;;;;;;21.20;12.13;;;-3.70;76.60;;;;;;6265577;28;20231;-64
2024/01/11 01:13:52;;;;;;;20.83;11.50;;;-3.70;76.70;;;;;;6271712;28;20201;-64
2024/01/11 01:16:53;;;;;;;25.27;12.57;;;-3.70;76.40;;;;;;6261924;28;20186;-65
2024/01/11 01:19:53;;;;;;;18.70;11.53;;;-3.70;76.70;;;;;;6254195;28;20194;-64
2024/01/11 01:22:55;;;;;;;20.43;12.43;;;-3.70;76.50;;;;;;6281109;28;20188;-64
2024/01/11 01:25:55;;;;;;;17.97;11.70;;;-3.70;76.50;;;;;;6279177;28;20192;-65
2024/01/11 01:28:56;;;;;;;21.53;13.00;;;-3.80;76.50;;;;;;6266109;28;20195;-65
2024/01/11 01:31:57;;;;;;;18.30;11.83;;;-3.80;77.20;;;;;;6249966;28;20306;-64
2024/01/11 01:34:57;;;;;;;18.83;11.67;;;-3.80;77.00;;;;;;6264204;28;20187;-65
2024/01/11 01:37:58;;;;;;;17.67;10.30;;;-3.80;76.70;;;;;;6262210;28;20191;-64
2024/01/11 01:40:59;;;;;;;20.33;11.63;;;-3.80;76.80;;;;;;6266358;28;20189;-65
2024/01/11 01:43:59;;;;;;;19.53;11.50;;;-3.80;76.60;;;;;;6264288;28;20198;-65
2024/01/11 01:47:02;;;;;;;21.20;12.03;;;-3.80;76.30;;;;;;6267909;28;20196;-65
2024/01/11 01:50:04;;;;;;;21.23;11.33;;;-3.80;76.50;;;;;;6297218;28;20218;-64
2024/01/11 01:53:05;;;;;;;20.53;10.83;;;-3.80;77.00;;;;;;6269466;28;20214;-65
2024/01/11 01:56:06;;;;;;;21.53;12.53;;;-3.80;76.60;;;;;;6280038;28;20194;-65
2024/01/11 01:59:10;;;;;;;20.03;11.17;;;-3.80;76.70;;;;;;6286646;28;20241;-65
2024/01/11 02:02:11;;;;;;;18.27;12.00;;;-3.90;76.90;;;;;;6294701;28;20185;-65
2024/01/11 02:05:14;;;;;;;20.63;11.77;;;-3.90;76.90;;;;;;6283762;28;20202;-65
2024/01/11 02:08:17;;;;;;;16.63;10.53;;;-3.90;76.80;;;;;;6302385;28;20182;-65
2024/01/11 02:11:20;;;;;;;22.50;11.50;;;-3.90;76.60;;;;;;6291523;28;20221;-65
2024/01/11 02:14:20;;;;;;;19.07;10.63;;;-4.00;76.80;;;;;;6295048;28;20186;-64
2024/01/11 02:17:21;;;;;;;21.70;11.47;;;-4.00;77.00;;;;;;6281664;28;20191;-65
2024/01/11 02:20:22;;;;;;;21.93;11.40;;;-4.00;77.20;;;;;;6283486;28;20199;-64
2024/01/11 02:23:26;;;;;;;16.13;10.40;;;-4.00;76.60;;;;;;6285267;28;20207;-64
2024/01/11 02:26:27;;;;;;;16.50;10.60;;;-4.00;77.00;;;;;;6299620;28;20182;-65
2024/01/11 02:29:28;;;;;;;17.00;10.20;;;-4.10;77.20;;;;;;6273598;28;20241;-65
2024/01/11 02:32:29;;;;;;;18.47;10.93;;;-4.10;77.20;;;;;;6293879;28;20226;-65
2024/01/11 02:35:31;;;;;;;16.17;10.50;;;-4.10;77.50;;;;;;6261497;28;20189;-65
2024/01/11 02:38:34;;;;;;;17.40;10.03;;;-4.10;78.00;;;;;;6277205;28;20192;-65
2024/01/11 02:41:37;;;;;;;16.97;10.70;;;-4.00;77.50;;;;;;6278124;28;20190;-65
2024/01/11 02:44:37;;;;;;;16.37;10.23;;;-4.00;77.70;;;;;;6309515;28;20181;-65
2024/01/11 02:47:38;;;;;;;15.80;9.73;;;-4.00;77.50;;;;;;6269186;28;20189;-65
2024/01/11 02:50:39;;;;;;;18.20;10.63;;;-4.10;77.90;;;;;;6283952;28;20219;-65
2024/01/11 02:53:40;;;;;;;18.60;10.73;;;-4.00;77.40;;;;;;6262587;28;20197;-65
2024/01/11 02:56:41;;;;;;;15.97;10.57;;;-4.00;77.60;;;;;;6272925;28;20188;-65
2024/01/11 02:59:43;;;;;;;16.27;9.63;;;-4.00;77.80;;;;;;6298743;28;20261;-65
2024/01/11 03:02:44;;;;;;;17.37;10.10;;;-4.00;77.60;;;;;;6285732;28;20187;-65
2024/01/11 03:05:44;;;;;;;18.33;10.70;;;-4.10;77.90;;;;;;6284753;28;20191;-65
2024/01/11 03:08:45;;;;;;;15.17;9.60;;;-4.10;78.10;;;;;;6277921;28;20298;-64
2024/01/11 03:11:46;;;;;;;14.57;9.80;;;-4.10;77.60;;;;;;6270607;28;20210;-65
2024/01/11 03:14:46;;;;;;;16.17;9.80;;;-4.00;77.70;;;;;;6282949;28;20194;-65
2024/01/11 03:17:47;;;;;;;16.37;8.73;;;-4.00;77.70;;;;;;6281668;28;20178;-64
2024/01/11 03:20:48;;;;;;;15.50;9.97;;;-4.00;77.40;;;;;;6283708;28;20191;-65
2024/01/11 03:23:48;;;;;;;16.53;9.63;;;-4.10;77.60;;;;;;6264520;28;20206;-65
2024/01/11 03:26:49;;;;;;;17.30;9.50;;;-4.10;77.20;;;;;;6271049;28;20216;-65
2024/01/11 03:29:50;;;;;;;18.13;10.90;;;-4.20;77.70;;;;;;6271385;28;20182;-65
2024/01/11 03:32:50;;;;;;;18.43;10.57;;;-4.20;78.10;;;;;;6304711;28;20209;-65
2024/01/11 03:35:51;;;;;;;16.97;9.63;;;-4.20;78.20;;;;;;6306552;28;20191;-65
2024/01/11 03:38:52;;;;;;;16.17;10.00;;;-4.20;77.80;;;;;;6274197;28;20328;-64
2024/01/11 03:41:52;;;;;;;17.20;10.63;;;-4.20;77.50;;;;;;6278628;28;20191;-64
2024/01/11 03:44:53;;;;;;;20.00;10.07;;;-4.30;77.80;;;;;;6283160;28;20211;-65
2024/01/11 03:47:54;;;;;;;16.60;9.60;;;-4.20;77.90;;;;;;6266153;28;20290;-65
2024/01/11 03:50:54;;;;;;;15.63;9.73;;;-4.20;77.60;;;;;;6282304;28;20230;-65
2024/01/11 03:53:55;;;;;;;18.43;10.07;;;-4.20;77.20;;;;;;6260500;28;20209;-65
2024/01/11 03:56:56;;;;;;;15.50;9.70;;;-4.30;77.80;;;;;;6275019;28;20192;-65
2024/01/11 03:59:58;;;;;;;17.30;9.90;;;-4.30;77.60;;;;;;6262073;28;20260;-65
2024/01/11 04:02:59;;;;;;;14.60;9.37;;;-4.30;77.80;;;;;;6272278;28;20210;-64
2024/01/11 04:06:01;;;;;;;16.97;10.37;;;-4.30;77.70;;;;;;6274920;28;20222;-65
2024/01/11 04:09:02;;;;;;;17.37;9.03;;;-4.30;77.80;;;;;;6265909;28;20187;-65
2024/01/11 04:12:03;;;;;;;16.63;10.23;;;-4.50;78.30;;;;;;6284468;28;20226;-64
2024/01/11 04:15:04;;;;;;;17.57;9.60;;;-4.40;77.90;;;;;;6267440;28;20199;-65
2024/01/11 04:18:05;;;;;;;14.37;8.57;;;-4.50;78.40;;;;;;6289690;28;20201;-64
2024/01/11 04:21:05;;;;;;;13.87;8.73;;;-4.50;78.60;;;;;;6287501;28;20194;-64
2024/01/11 04:24:06;;;;;;;14.60;9.20;;;-4.40;78.40;;;;;;6266196;28;20293;-64
2024/01/11 04:27:07;;;;;;;13.37;8.57;;;-4.40;78.70;;;;;;6294618;28;20225;-64
2024/01/11 04:30:08;;;;;;;16.97;9.97;;;-4.40;78.50;;;;;;6267182;28;20212;-64
2024/01/11 04:33:10;;;;;;;12.77;8.23;;;-4.40;78.40;;;;;;6268410;28;20195;-64
2024/01/11 04:36:11;;;;;;;14.40;8.57;;;-4.50;78.30;;;;;;6271181;28;20277;-64
2024/01/11 04:39:11;;;;;;;15.30;9.23;;;-4.50;78.10;;;;;;6283965;28;20197;-64
2024/01/11 04:42:12;;;;;;;15.73;9.60;;;-4.60;78.40;;;;;;6266128;28;20198;-64
2024/01/11 04:45:13;;;;;;;15.93;10.00;;;-4.60;78.60;;;;;;6288251;28;20195;-64
2024/01/11 04:48:13;;;;;;;17.17;9.27;;;-4.60;78.50;;;;;;6267443;28;20189;-64
2024/01/11 04:51:15;;;;;;;14.97;9.70;;;-4.50;78.90;;;;;;6278561;28;20208;-64
2024/01/11 04:54:16;;;;;;;13.83;9.37;;;-4.50;79.10;;;;;;6301516;28;20198;-64
2024/01/11 04:57:17;;;;;;;14.77;9.73;;;-4.50;78.60;;;;;;6299401;28;20186;-64
2024/01/11 05:00:18;;;;;;;18.63;11.13;;;-4.60;78.70;;;;;;6291832;28;20190;-65
2024/01/11 05:03:19;;;;;;;21.30;11.70;;;-4.50;79.10;;;;;;6276313;28;20198;-64
2024/01/11 05:06:21;;;;;;;13.93;9.93;;;-4.40;78.40;;;;;;6272206;28;20283;-64
2024/01/11 05:09:22;;;;;;;20.60;11.20;;;-4.60;78.30;;;;;;6281304;28;20198;-65
2024/01/11 05:12:23;;;;;;;21.47;11.30;;;-4.60;78.30;;;;;;6289869;28;20319;-64
2024/01/11 05:15:23;;;;;;;18.17;10.20;;;-4.60;78.40;;;;;;6265340;28;20189;-65
2024/01/11 05:18:24;;;;;;;16.03;9.97;;;-4.60;78.40;;;;;;6285959;28;20199;-66
2024/01/11 05:21:25;;;;;;;16.77;10.70;;;-4.60;78.40;;;;;;6270973;28;20189;-66
2024/01/11 05:24:26;;;;;;;15.63;9.83;;;-4.60;78.40;;;;;;6302588;28;20200;-70
2024/01/11 05:27:27;;;;;;;18.17;10.53;;;-4.60;78.50;;;;;;6282382;28;20201;-66
2024/01/11 05:30:27;;;;;;;14.27;9.83;;;-4.60;78.40;;;;;;6280879;28;20276;-66
2024/01/11 05:33:28;;;;;;;16.53;10.33;;;-4.70;78.30;;;;;;6270991;28;20187;-67
2024/01/11 05:36:29;;;;;;;17.30;11.43;;;-4.80;78.40;;;;;;6266726;28;20196;-66
2024/01/11 05:39:29;;;;;;;20.20;11.53;;;24.00;50.00;;;;;;6279979;28;20201;-65
2024/01/11 05:42:30;;;;;;;19.33;10.73;;;-4.90;78.70;;;;;;6270622;28;20259;-65
2024/01/11 05:45:31;;;;;;;20.23;10.90;;;-4.90;78.70;;;;;;6280320;28;20203;-65
2024/01/11 05:48:31;;;;;;;20.37;13.03;;;-4.80;78.80;;;;;;6261862;28;20285;-65
2024/01/11 05:51:32;;;;;;;22.03;12.73;;;-4.80;79.20;;;;;;6271389;28;20219;-64
2024/01/11 05:54:33;;;;;;;24.27;12.57;;;-4.70;78.70;;;;;;6262956;28;20226;-64
2024/01/11 05:57:33;;;;;;;23.70;12.70;;;-4.60;79.20;;;;;;6263075;28;20218;-64
2024/01/11 06:00:34;;;;;;;25.57;14.33;;;-4.70;79.20;;;;;;6274176;28;20197;-64
2024/01/11 06:03:35;;;;;;;26.40;14.57;;;-4.60;78.90;;;;;;6265982;28;20193;-64
2024/01/11 06:06:35;;;;;;;29.30;16.50;;;-4.70;79.40;;;;;;6286114;28;20231;-64
2024/01/11 06:09:36;;;;;;;25.90;14.40;;;-4.70;79.70;;;;;;6258636;28;20280;-64
2024/01/11 06:12:37;;;;;;;23.27;14.13;;;-4.80;79.20;;;;;;6281519;28;20226;-64
2024/01/11 06:15:38;;;;;;;21.83;12.47;;;-4.80;79.60;;;;;;6266442;28;20215;-65
2024/01/11 06:18:38;;;;;;;19.77;11.43;;;-4.70;79.40;;;;;;6283585;28;20276;-64
2024/01/11 06:21:39;;;;;;;21.30;13.57;;;-4.70;78.90;;;;;;6263234;28;20199;-64
2024/01/11 06:24:40;;;;;;;19.77;12.13;;;-4.70;78.50;;;;;;6266983;28;20232;-64
2024/01/11 06:27:43;;;;;;;24.03;12.30;;;-4.80;78.30;;;;;;6265045;28;20193;-64
2024/01/11 06:30:44;;;;;;;19.80;11.77;;;-4.80;78.90;;;;;;6300186;28;20209;-64
2024/01/11 06:33:44;;;;;;;22.73;12.03;;;-4.80;78.60;;;;;;6260732;28;20217;-64
2024/01/11 06:36:45;;;;;;;20.90;11.93;;;-4.80;78.80;;;;;;6249311;28;20243;-64
2024/01/11 06:39:46;;;;;;;21.43;11.87;;;-4.80;78.30;;;;;;6281859;28;20206;-64
2024/01/11 06:42:47;;;;;;;21.97;12.53;;;-4.90;78.40;;;;;;6261472;28;20206;-64
2024/01/11 06:45:48;;;;;;;24.23;13.57;;;-4.90;78.40;;;;;;6254460;28;20232;-64
2024/01/11 06:48:49;;;;;;;26.97;13.57;;;-4.80;78.70;;;;;;6271438;28;20198;-64
2024/01/11 06:51:49;;;;;;;25.00;14.77;;;-4.80;79.50;;;;;;6282978;28;20211;-64
2024/01/11 06:54:50;;;;;;;23.70;13.57;;;-4.70;79.30;;;;;;6264759;28;20200;-64
2024/01/11 06:57:51;;;;;;;22.07;13.93;;;-4.70;78.50;;;;;;6278825;28;20246;-64
2024/01/11 07:00:51;;;;;;;21.83;12.37;;;-4.80;79.10;;;;;;6247305;28;20280;-64
2024/01/11 07:03:52;;;;;;;19.27;12.60;;;-4.60;79.40;;;;;;6263052;28;20194;-64
2024/01/11 07:06:53;;;;;;;21.10;13.43;;;-4.60;79.20;;;;;;6270064;28;20203;-64
2024/01/11 07:09:55;;;;;;;23.20;12.17;;;-4.60;78.70;;;;;;6285334;28;20201;-64
2024/01/11 07:12:56;;;;;;;25.47;13.20;;;-4.60;78.60;;;;;;6268216;28;20212;-64
2024/01/11 07:15:57;;;;;;;20.20;12.07;;;-4.70;78.70;;;;;;6281268;28;20189;-64
2024/01/11 07:18:58;;;;;;;19.40;12.33;;;-4.80;79.10;;;;;;6281827;28;20199;-64
2024/01/11 07:21:59;;;;;;;22.43;12.83;;;-4.80;80.00;;;;;;6255589;28;20202;-64
2024/01/11 07:24:59;;;;;;;20.97;11.53;;;-4.80;79.50;;;;;;6261077;28;20205;-64
2024/01/11 07:28:01;;;;;;;22.70;12.93;;;-4.70;79.30;;;;;;6281901;28;20277;-64
2024/01/11 07:31:01;;;;;;;19.77;11.60;;;-4.70;79.90;;;;;;6302244;28;20217;-64
2024/01/11 07:34:02;;;;;;;17.90;11.30;;;-4.80;80.40;;;;;;6287011;28;20193;-64
2024/01/11 07:37:03;;;;;;;22.00;13.13;;;-4.70;79.40;;;;;;6274979;28;20285;-64
2024/01/11 07:40:09;;;;;;;23.17;14.07;;;-4.70;79.70;;;;;;6287552;28;20213;-64
2024/01/11 07:43:11;;;;;;;32.90;22.33;;;-4.70;79.60;;;;;;6304711;28;20271;-64
2024/01/11 07:46:12;;;;;;;41.80;24.07;;;-4.70;80.10;;;;;;6279530;28;20199;-64
2024/01/11 07:49:12;;;;;;;33.07;20.30;;;-4.60;80.20;;;;;;6269890;28;20281;-64
2024/01/11 07:52:14;;;;;;;23.57;15.33;;;-4.50;80.00;;;;;;6272316;28;20218;-64
2024/01/11 07:55:15;;;;;;;25.63;16.13;;;-4.60;80.30;;;;;;6269572;28;20203;-64
2024/01/11 07:58:15;;;;;;;29.37;18.23;;;-4.60;80.70;;;;;;6267024;28;20229;-64
2024/01/11 08:01:16;;;;;;;33.77;19.83;;;-4.40;80.90;;;;;;6276075;28;20232;-64
2024/01/11 08:04:17;;;;;;;24.97;15.43;;;-4.30;80.80;;;;;;6305926;28;20207;-64
2024/01/11 08:07:18;;;;;;;20.07;13.93;;;-4.10;80.50;;;;;;6250223;28;20272;-64
2024/01/11 08:10:18;;;;;;;19.90;12.53;;;-4.10;80.60;;;;;;6265591;28;20243;-64
2024/01/11 08:13:21;;;;;;;19.40;12.13;;;-4.00;80.10;;;;;;6291497;28;20193;-64
2024/01/11 08:16:22;;;;;;;21.33;12.00;;;-4.00;79.90;;;;;;6292706;28;20205;-64
2024/01/11 08:19:22;;;;;;;18.23;12.03;;;-4.00;79.80;;;;;;6286862;28;20190;-64
2024/01/11 08:22:23;;;;;;;18.83;12.33;;;-4.00;79.80;;;;;;6266284;28;20290;-64
2024/01/11 08:25:24;;;;;;;18.90;11.00;;;-3.90;80.30;;;;;;6293628;28;20282;-64
2024/01/11 08:28:24;;;;;;;17.03;10.80;;;-3.80;80.20;;;;;;6273435;28;20197;-64
2024/01/11 08:31:25;;;;;;;17.10;10.83;;;-3.80;80.10;;;;;;6267295;28;20222;-64
2024/01/11 08:34:26;;;;;;;20.10;10.93;;;-3.80;80.00;;;;;;6266517;28;20245;-64
2024/01/11 08:37:27;;;;;;;15.83;10.70;;;-3.70;79.70;;;;;;6267763;28;20214;-64
2024/01/11 08:40:27;;;;;;;16.43;10.27;;;-3.60;79.40;;;;;;6268352;28;20197;-64
2024/01/11 08:43:28;;;;;;;16.50;10.33;;;-3.60;79.50;;;;;;6286048;28;20213;-64
2024/01/11 08:46:30;;;;;;;19.00;10.87;;;-3.50;79.20;;;;;;6264885;28;20331;-64
2024/01/11 08:49:31;;;;;;;17.57;10.67;;;-3.50;79.30;;;;;;6264431;28;20192;-64
2024/01/11 08:52:33;;;;;;;14.57;9.93;;;-3.40;79.20;;;;;;6271936;28;20255;-64
2024/01/11 08:55:34;;;;;;;16.17;10.60;;;-3.20;78.80;;;;;;6280802;28;20204;-64
2024/01/11 08:58:36;;;;;;;16.87;10.60;;;-3.20;78.80;;;;;;6271110;28;20241;-64
2024/01/11 09:01:37;;;;;;;17.23;11.30;;;-3.20;78.80;;;;;;6271738;28;20194;-64
2024/01/11 09:04:37;;;;;;;17.27;11.30;;;-3.10;78.60;;;;;;6273592;28;20209;-64
2024/01/11 09:07:38;;;;;;;19.50;11.00;;;-3.00;78.10;;;;;;6278846;28;20894;-64
2024/01/11 09:10:39;;;;;;;16.07;9.90;;;-2.90;78.10;;;;;;6264442;28;20217;-64
2024/01/11 09:13:40;;;;;;;17.83;10.73;;;-2.80;77.60;;;;;;6298524;28;20180;-64
2024/01/11 09:16:41;;;;;;;17.43;10.37;;;-2.80;77.70;;;;;;6286327;28;20186;-64
2024/01/11 09:19:41;;;;;;;14.63;9.43;;;-2.70;78.30;;;;;;6265570;28;20281;-64
2024/01/11 09:22:42;;;;;;;15.80;10.47;;;-2.70;78.40;;;;;;6267699;28;20188;-64
2024/01/11 09:25:43;;;;;;;15.93;9.57;;;-2.70;77.60;;;;;;6271317;28;20183;-64
2024/01/11 09:28:44;;;;;;;19.33;8.93;;;-2.60;78.00;;;;;;6286485;28;20228;-64
2024/01/11 09:31:44;;;;;;;16.87;9.83;;;-2.50;77.90;;;;;;6265490;28;20208;-64
2024/01/11 09:34:45;;;;;;;15.83;10.10;;;;;;;;;;6266737;28;20223;-64
2024/01/11 09:37:46;;;;;;;15.83;9.10;;;-2.40;78.10;;;;;;6287589;28;20191;-64
2024/01/11 09:40:54;;;;;;;15.47;10.50;;;-2.30;77.70;;;;;;6294684;28;20338;-64
2024/01/11 09:44:00;;;;;;;16.17;9.93;;;-2.20;77.20;;;;;;6302178;28;20235;-64
2024/01/11 09:47:02;;;;;;;16.83;9.27;;;-2.20;76.90;;;;;;6301305;28;20218;-65
2024/01/11 09:50:03;;;;;;;14.63;9.60;;;-2.10;76.70;;;;;;6283696;28;20276;-64
2024/01/11 09:53:06;;;;;;;17.03;10.33;;;-2.10;76.50;;;;;;6299562;28;20250;-64
2024/01/11 09:56:10;;;;;;;16.97;9.83;;;-2.10;76.50;;;;;;6295299;28;20236;-64
2024/01/11 09:59:11;;;;;;;14.80;10.07;;;-1.90;75.90;;;;;;6247265;28;20236;-65
2024/01/11 10:02:12;;;;;;;21.40;10.33;;;-1.90;76.20;;;;;;6229855;28;20196;-65
2024/01/11 10:05:16;;;;;;;16.77;9.67;;;-1.80;75.70;;;;;;6256484;28;20238;-65
2024/01/11 10:08:21;;;;;;;19.27;11.57;;;-1.80;75.70;;;;;;6243545;28;20330;-65
2024/01/11 10:11:22;;;;;;;15.97;10.80;;;-1.70;75.50;;;;;;6264693;28;20245;-65
2024/01/11 10:14:23;;;;;;;19.17;11.23;;;-1.60;75.20;;;;;;6244501;28;20178;-64
2024/01/11 10:17:26;;;;;;;17.20;11.27;;;-1.50;74.80;;;;;;6234697;28;20192;-64
2024/01/11 10:20:29;;;;;;;18.17;11.00;;;-1.50;74.40;;;;;;6251274;28;20249;-64
2024/01/11 10:23:33;;;;;;;17.27;10.87;;;-1.40;74.30;;;;;;6228546;28;20215;-64
2024/01/11 10:26:35;;;;;;;18.37;10.90;;;-1.30;74.70;;;;;;6255325;28;20188;-64
2024/01/11 10:29:36;;;;;;;24.93;12.27;;;-1.30;74.40;;;;;;6241724;28;20252;-64
2024/01/11 10:32:38;;;;;;;19.50;13.20;;;-1.20;74.20;;;;;;6247403;28;20313;-64
2024/01/11 10:35:39;;;;;;;21.90;12.20;;;-1.10;73.50;;;;;;6253805;28;20261;-64
2024/01/11 10:38:40;;;;;;;25.30;12.93;;;-1.00;73.30;;;;;;6245059;28;20258;-64
2024/01/11 10:41:47;;;;;;;20.97;13.07;;;-1.00;73.20;;;;;;6233781;28;20297;-64
2024/01/11 10:44:52;;;;;;;22.97;14.03;;;-0.90;73.50;;;;;;6253954;28;20658;-64
2024/01/11 10:48:05;;;;;;;23.53;13.27;;;-0.90;73.60;;;;;;6258748;28;20184;-65
2024/01/11 10:51:10;;;;;;;25.93;14.33;;;-0.70;73.10;;;;;;6235206;28;20695;-65
2024/01/11 10:54:11;;;;;;;17.10;13.03;;;-0.70;72.30;;;;;;6256103;28;20211;-65
2024/01/11 10:57:13;;;;;;;19.40;12.90;;;-0.70;72.90;;;;;;6250508;28;20193;-65
2024/01/11 11:00:14;;;;;;;16.87;11.43;;;-0.60;71.40;;;;;;6282409;28;20185;-65
2024/01/11 11:03:18;;;;;;;19.33;12.30;;;-0.50;71.80;;;;;;6280723;28;20184;-65
2024/01/11 11:06:19;;;;;;;15.23;10.57;;;-0.40;70.30;;;;;;6285913;28;20689;-65
2024/01/11 11:09:21;;;;;;;16.60;11.83;;;-0.30;70.30;;;;;;6269195;28;20192;-65
2024/01/11 11:12:22;;;;;;;16.97;10.20;;;-0.20;70.20;;;;;;6290683;28;20212;-65
2024/01/11 11:15:24;;;;;;;11.90;8.57;;;-0.10;69.40;;;;;;6281677;28;20184;-65
2024/01/11 11:18:25;;;;;;;13.47;7.67;;;-0.10;69.90;;;;;;6288762;28;20191;-65
2024/01/11 11:21:26;;;;;;;18.10;11.40;;;-0.10;69.60;;;;;;6281617;28;20192;-65
2024/01/11 11:24:27;;;;;;;15.47;11.57;;;0.00;67.90;;;;;;6269299;28;20189;-65
2024/01/11 11:27:28;;;;;;;25.40;15.33;;;0.00;68.60;;;;;;6264153;28;20638;-65
2024/01/11 11:30:28;;;;;;;20.53;13.37;;;0.20;68.90;;;;;;6283102;28;20230;-65
2024/01/11 11:33:30;;;;;;;20.40;13.87;;;0.30;69.20;;;;;;6273379;28;20189;-64
2024/01/11 11:36:32;;;;;;;19.57;12.13;;;0.40;68.20;;;;;;6287244;28;20230;-65
2024/01/11 11:39:34;;;;;;;22.23;13.80;;;0.40;68.50;;;;;;6289867;28;20222;-65
2024/01/11 11:42:35;;;;;;;21.43;12.87;;;0.50;68.10;;;;;;6255593;28;20189;-65
2024/01/11 11:45:38;;;;;;;21.83;13.87;;;0.60;68.50;;;;;;6275235;28;20257;-65
2024/01/11 11:48:49;;;;;;;20.77;13.67;;;0.60;68.60;;;;;;6300703;28;20189;-65
2024/01/11 11:51:49;;;;;;;23.07;12.20;;;0.80;67.20;;;;;;6299968;28;20209;-65
2024/01/11 11:54:50;;;;;;;23.00;13.03;;;1.00;65.20;;;;;;6267988;28;20192;-65
2024/01/11 11:57:52;;;;;;;16.63;11.83;;;1.10;64.80;;;;;;6303192;28;20227;-65
2024/01/11 12:00:54;;;;;;;15.13;10.77;;;1.20;64.50;;;;;;6286664;28;20193;-65
2024/01/11 12:03:55;;;;;;;18.60;11.53;;;1.30;64.60;;;;;;6270988;28;20200;-65
2024/01/11 12:06:56;;;;;;;15.97;10.53;;;1.40;64.00;;;;;;6263936;28;20270;-65
2024/01/11 12:09:56;;;;;;;18.00;11.93;;;1.50;64.50;;;;;;6261758;28;20197;-65
2024/01/11 12:12:57;;;;;;;19.23;12.50;;;1.50;64.20;;;;;;6299324;28;20212;-65
2024/01/11 12:15:58;;;;;;;23.20;12.27;;;1.70;63.40;;;;;;6277171;28;20189;-65
2024/01/11 12:18:59;;;;;;;17.10;11.63;;;1.80;62.60;;;;;;6264971;28;20208;-65
2024/01/11 12:22:00;;;;;;;21.67;13.07;;;1.90;62.80;;;;;;6267725;28;20196;-65
2024/01/11 12:25:01;;;;;;;19.33;11.87;;;;;;;;;;6292924;28;20188;-65
2024/01/11 12:28:03;;;;;;;18.43;12.00;;;;;;;;;;6283701;28;20222;-65
2024/01/11 12:31:04;;;;;;;16.70;12.53;;;;;;;;;;6280493;28;20307;-65
2024/01/11 12:34:05;;;;;;;20.57;12.03;;;2.00;61.40;;;;;;6302552;28;20184;-65
2024/01/11 12:37:06;;;;;;;16.73;12.23;;;2.50;60.20;;;;;;6290181;28;20195;-65
2024/01/11 12:40:10;;;;;;;19.10;11.03;;;2.50;58.90;;;;;;6265097;28;20205;-65
2024/01/11 12:43:11;;;;;;;20.63;12.37;;;2.60;59.30;;;;;;6282679;28;20192;-65
2024/01/11 12:46:12;;;;;;;20.07;13.50;;;2.70;59.00;;;;;;6295776;28;20184;-65
2024/01/11 12:49:13;;;;;;;17.13;12.13;;;2.80;58.70;;;;;;6264076;28;20249;-65
2024/01/11 12:52:20;;;;;;;18.80;12.73;;;2.80;58.50;;;;;;6285654;28;20257;-65
2024/01/11 12:55:21;;;;;;;17.37;12.13;;;2.90;58.10;;;;;;6304727;28;20180;-65
2024/01/11 12:58:22;;;;;;;16.67;10.77;;;3.00;58.00;;;;;;6284370;28;20277;-65
2024/01/11 13:01:23;;;;;;;18.33;11.50;;;3.00;58.40;;;;;;6285354;28;20188;-65
2024/01/11 13:04:24;;;;;;;17.10;12.43;;;3.10;57.50;;;;;;6276399;28;20199;-65
2024/01/11 13:07:25;;;;;;;17.77;10.93;;;;;;;;;;6256961;28;20213;-65
2024/01/11 13:10:27;;;;;;;14.10;9.27;;;;;;;;;;6272618;28;20663;-65
2024/01/11 13:13:30;;;;;;;20.43;11.17;;;;;;;;;;6295748;28;20181;-65
2024/01/11 13:16:31;;;;;;;18.33;12.50;;;;;;;;;;6296119;28;20185;-65
2024/01/11 13:19:32;;;;;;;17.10;11.60;;;;;;;;;;6279619;28;20185;-65
2024/01/11 13:22:33;;;;;;;21.40;12.20;;;;;;;;;;6279956;28;20275;-65
2024/01/11 13:25:34;;;;;;;19.30;12.40;;;;;;;;;;6272907;28;20265;-65
2024/01/11 13:28:35;;;;;;;19.17;13.30;;;;;;;;;;6304101;28;20184;-65
2024/01/11 13:31:36;;;;;;;17.43;12.40;;;3.10;58.20;;;;;;6289654;28;20224;-65
2024/01/11 13:34:37;;;;;;;17.43;12.37;;;3.70;55.30;;;;;;6273375;28;20199;-62
2024/01/11 13:37:38;;;;;;;17.43;11.87;;;3.70;55.60;;;;;;6282273;28;20207;-62
2024/01/11 13:40:39;;;;;;;18.30;11.97;;;3.80;55.50;;;;;;6262875;28;20223;-62
2024/01/11 13:43:40;;;;;;;19.70;12.03;;;;;;;;;;6260923;28;20195;-62
2024/01/11 13:46:43;;;;;;;14.90;11.00;;;;;;;;;;6284166;28;20195;-61
2024/01/11 13:49:45;;;;;;;15.83;10.40;;;;;;;;;;6302522;28;20184;-61
2024/01/11 13:52:46;;;;;;;21.63;12.20;;;;;;;;;;6282268;28;20223;-64
2024/01/11 13:55:48;;;;;;;13.60;10.13;;;;;;;;;;6289215;28;20196;-64
2024/01/11 13:58:49;;;;;;;18.77;11.50;;;;;;;;;;6283689;28;20244;-64
2024/01/11 14:01:50;;;;;;;13.03;10.07;;;3.90;56.20;;;;;;6284346;28;20199;-64
2024/01/11 14:04:50;;;;;;;18.17;12.00;;;4.00;55.00;;;;;;6261413;28;20189;-64
2024/01/11 14:07:57;;;;;;;17.70;11.97;;;4.10;55.70;;;;;;6270494;28;20636;-64
2024/01/11 14:10:58;;;;;;;18.67;12.50;;;4.00;54.10;;;;;;6269381;28;20252;-64
2024/01/11 14:13:59;;;;;;;21.43;13.17;;;4.00;54.60;;;;;;6271059;28;20216;-64
2024/01/11 14:16:59;;;;;;;14.70;11.27;;;3.90;54.70;;;;;;6263759;28;20284;-64
2024/01/11 14:20:01;;;;;;;17.87;10.43;;;3.90;55.70;;;;;;6281773;28;20184;-64
2024/01/11 14:23:02;;;;;;;13.40;10.43;;;3.90;55.10;;;;;;6303261;28;20231;-64
2024/01/11 14:26:02;;;;;;;17.10;12.40;;;3.90;55.30;;;;;;6288037;28;20248;-64
2024/01/11 14:29:03;;;;;;;16.13;11.40;;;3.90;54.90;;;;;;6303376;28;20191;-64
2024/01/11 14:32:05;;;;;;;17.80;12.60;;;4.00;55.80;;;;;;6270852;28;20223;-64
2024/01/11 14:35:07;;;;;;;17.17;11.53;;;3.80;55.60;;;;;;6268925;28;20279;-64
2024/01/11 14:38:07;;;;;;;20.83;11.90;;;3.80;56.20;;;;;;6270506;28;20278;-63
2024/01/11 14:41:09;;;;;;;17.57;10.70;;;3.80;56.30;;;;;;6282083;28;20193;-64
2024/01/11 14:44:10;;;;;;;16.07;10.27;;;3.80;56.70;;;;;;6262076;28;20189;-64
2024/01/11 14:47:11;;;;;;;13.07;10.10;;;3.60;57.40;;;;;;6263283;28;20209;-64
2024/01/11 14:50:12;;;;;;;14.70;9.70;;;3.50;57.60;;;;;;6288676;28;20204;-64
2024/01/11 14:53:14;;;;;;;16.50;10.90;;;3.40;57.60;;;;;;6269765;28;20270;-64
2024/01/11 14:56:14;;;;;;;12.97;9.37;;;3.30;57.90;;;;;;6277789;28;20278;-64
2024/01/11 14:59:15;;;;;;;13.57;9.57;;;;;;;;;;6273723;28;20239;-64
2024/01/11 15:02:16;;;;;;;12.73;9.17;;;;;;;;;;6295742;28;20279;-64
2024/01/11 15:05:18;;;;;;;12.37;9.63;;;;;;;;;;6284624;28;20204;-64
2024/01/11 15:08:19;;;;;;;15.20;9.80;;;;;;;;;;6294728;28;20241;-64
2024/01/11 15:11:20;;;;;;;17.10;9.87;;;24.00;50.00;;;;;;6291216;28;20216;-64
2024/01/11 15:14:20;;;;;;;18.03;10.93;;;2.70;60.30;;;;;;6269237;28;20180;-64
2024/01/11 15:17:21;;;;;;;15.20;11.00;;;2.50;60.50;;;;;;6309393;28;20207;-64
2024/01/11 15:20:22;;;;;;;15.83;10.60;;;2.40;61.00;;;;;;6284292;28;20213;-64
2024/01/11 15:23:23;;;;;;;15.93;10.10;;;2.20;61.60;;;;;;6283296;28;20197;-65
2024/01/11 15:26:23;;;;;;;15.33;10.37;;;2.10;61.80;;;;;;6266215;28;20194;-64
2024/01/11 15:29:24;;;;;;;12.83;9.77;;;1.90;62.60;;;;;;6281956;28;20277;-64
2024/01/11 15:32:24;;;;;;;15.80;10.53;;;1.80;62.70;;;;;;6287563;28;20217;-65